Time;durP1;ratioP1;P1;durP2;ratioP2;P2;SDS_P1;SDS_P2;PMS_P1;PMS_P2;Temp;Humidity;BMP_temperature;BMP_pressure;BME280_temperature;BME280_humidity;BME280_pressure;Samples;Min_cycle;Max_cycle;Signal;HPM_P1;HPM_P2
2024/01/08 00:01:24;;;;;;;4.00;3.70;;;1.30;99.90;;;;;;5053657;28;20237;-78
2024/01/08 00:03:54;;;;;;;3.53;3.22;;;1.40;99.90;;;;;;5051916;28;20726;-80
2024/01/08 00:06:23;;;;;;;3.50;3.20;;;1.30;99.90;;;;;;5050933;28;20246;-79
2024/01/08 00:08:52;;;;;;;3.67;3.38;;;1.30;99.90;;;;;;5056489;28;20729;-81
2024/01/08 00:11:20;;;;;;;3.28;3.08;;;1.30;99.90;;;;;;5051977;28;20230;-80
2024/01/08 00:13:49;;;;;;;3.30;3.00;;;1.40;99.90;;;;;;5050249;28;20643;-81
2024/01/08 00:16:17;;;;;;;3.20;3.00;;;1.40;99.90;;;;;;5048459;28;20197;-81
2024/01/08 00:18:46;;;;;;;3.53;3.25;;;1.50;99.90;;;;;;5050980;28;20280;-80
2024/01/08 00:21:16;;;;;;;3.05;2.90;;;1.50;99.90;;;;;;5054059;28;20227;-79
2024/01/08 00:23:44;;;;;;;2.83;2.63;;;1.50;99.90;;;;;;5051265;28;20205;-81
2024/01/08 00:26:25;;;;;;;2.90;2.80;;;1.30;99.90;;;;;;5049663;28;20214;-81
2024/01/08 00:28:53;;;;;;;2.85;2.65;;;1.30;99.90;;;;;;5052816;28;20225;-81
2024/01/08 00:31:21;;;;;;;2.80;2.63;;;1.30;99.90;;;;;;5053191;28;20225;-77
2024/01/08 00:33:50;;;;;;;3.58;3.30;;;1.30;99.90;;;;;;5054432;28;20201;-77
2024/01/08 00:36:20;;;;;;;2.35;2.25;;;1.30;99.90;;;;;;5050868;28;20264;-79
2024/01/08 00:38:48;;;;;;;2.58;2.38;;;1.20;99.90;;;;;;5052699;28;20205;-81
2024/01/08 00:41:16;;;;;;;2.55;2.45;;;1.30;99.90;;;;;;5051449;28;20274;-81
2024/01/08 00:43:45;;;;;;;5.15;2.47;;;1.30;99.90;;;;;;5055767;28;20205;-80
2024/01/08 00:46:13;;;;;;;2.30;2.20;;;1.30;99.90;;;;;;5052126;28;20754;-80
2024/01/08 00:48:42;;;;;;;3.13;2.92;;;1.30;99.90;;;;;;5052152;28;20259;-80
2024/01/08 00:51:10;;;;;;;3.03;2.45;;;1.30;99.90;;;;;;5052821;28;20221;-80
2024/01/08 00:53:40;;;;;;;2.97;2.65;;;1.20;99.90;;;;;;5053109;28;20204;-80
2024/01/08 00:56:08;;;;;;;2.50;2.40;;;1.30;99.90;;;;;;5055313;28;20198;-79
2024/01/08 00:58:41;;;;;;;2.58;2.47;;;1.30;99.90;;;;;;5054602;28;20245;-81
2024/01/08 01:01:12;;;;;;;2.30;2.20;;;1.40;99.90;;;;;;5054053;28;20217;-80
2024/01/08 01:03:40;;;;;;;2.60;2.40;;;1.40;99.90;;;;;;5053468;28;20659;-80
2024/01/08 01:06:09;;;;;;;2.20;2.10;;;1.30;99.90;;;;;;5052227;28;20293;-79
2024/01/08 01:08:37;;;;;;;2.72;2.53;;;1.30;99.90;;;;;;5050855;28;20209;-79
2024/01/08 01:11:07;;;;;;;2.90;2.70;;;1.30;99.90;;;;;;5051615;28;20202;-79
2024/01/08 01:13:35;;;;;;;2.78;2.58;;;1.30;99.90;;;;;;5052944;28;20201;-80
2024/01/08 01:16:04;;;;;;;3.25;3.05;;;1.30;99.90;;;;;;5047140;28;20570;-81
2024/01/08 01:18:33;;;;;;;2.78;2.58;;;1.20;99.90;;;;;;5058228;28;20693;-80
2024/01/08 01:21:01;;;;;;;2.75;2.65;;;1.30;99.90;;;;;;5057428;28;20837;-80
2024/01/08 01:23:29;;;;;;;3.30;3.10;;;1.30;99.90;;;;;;5054978;28;20316;-81
2024/01/08 01:25:58;;;;;;;2.47;2.35;;;1.30;99.90;;;;;;5053566;28;20228;-80
2024/01/08 01:28:27;;;;;;;2.65;2.45;;;1.20;99.90;;;;;;5054689;28;20236;-77
2024/01/08 01:30:56;;;;;;;2.50;2.30;;;1.20;99.90;;;;;;5053920;28;20213;-81
2024/01/08 01:33:24;;;;;;;2.90;2.70;;;1.20;99.90;;;;;;5056893;28;20291;-81
2024/01/08 01:35:52;;;;;;;2.60;2.40;;;1.30;99.90;;;;;;5057244;28;20225;-82
2024/01/08 01:38:21;;;;;;;3.05;2.85;;;1.20;99.90;;;;;;5055671;28;20218;-80
2024/01/08 01:40:49;;;;;;;2.78;2.58;;;1.30;99.90;;;;;;5053827;28;20292;-78
2024/01/08 01:43:21;;;;;;;2.53;2.33;;;1.20;99.90;;;;;;5056952;28;20200;-81
2024/01/08 01:45:53;;;;;;;2.95;2.70;;;1.10;99.90;;;;;;5053578;28;20216;-80
2024/01/08 01:48:22;;;;;;;2.72;2.53;;;1.10;99.90;;;;;;5052717;28;20246;-81
2024/01/08 01:50:52;;;;;;;3.30;2.60;;;1.20;99.90;;;;;;5059022;28;20201;-80
2024/01/08 01:53:21;;;;;;;2.70;2.60;;;1.10;99.90;;;;;;5057514;28;20196;-79
2024/01/08 01:55:49;;;;;;;3.03;2.78;;;1.20;99.90;;;;;;5060156;28;20201;-80
2024/01/08 01:58:18;;;;;;;3.10;2.90;;;1.20;99.90;;;;;;5053208;28;20201;-82
2024/01/08 02:00:47;;;;;;;3.28;2.85;;;1.10;99.90;;;;;;5054851;28;20680;-82
2024/01/08 02:03:17;;;;;;;2.80;2.60;;;1.10;99.90;;;;;;5051918;28;20194;-78
2024/01/08 02:05:46;;;;;;;2.95;2.75;;;1.20;99.90;;;;;;5056263;28;20241;-81
2024/01/08 02:08:15;;;;;;;2.63;2.53;;;1.20;99.90;;;;;;5054859;28;20198;-80
2024/01/08 02:10:44;;;;;;;3.00;2.80;;;1.20;99.90;;;;;;5054071;28;20190;-81
2024/01/08 02:13:12;;;;;;;4.05;3.70;;;1.20;99.90;;;;;;5052686;28;20244;-81
2024/01/08 02:15:40;;;;;;;3.00;2.80;;;1.20;99.90;;;;;;5055543;28;20217;-79
2024/01/08 02:18:09;;;;;;;3.78;3.40;;;1.20;99.90;;;;;;5050482;28;20206;-80
2024/01/08 02:20:38;;;;;;;2.97;2.78;;;1.20;99.90;;;;;;5050814;28;20193;-80
2024/01/08 02:23:08;;;;;;;3.13;2.85;;;1.20;99.90;;;;;;5050012;28;20229;-78
2024/01/08 02:25:37;;;;;;;3.17;2.80;;;1.10;99.90;;;;;;5047006;28;20667;-80
2024/01/08 02:28:06;;;;;;;3.13;2.90;;;1.10;99.90;;;;;;5054868;28;20206;-80
2024/01/08 02:30:34;;;;;;;3.33;2.95;;;1.10;99.90;;;;;;5048470;28;20222;-80
2024/01/08 02:33:02;;;;;;;2.80;2.60;;;1.20;99.90;;;;;;5053173;28;20224;-80
2024/01/08 02:35:31;;;;;;;3.70;3.40;;;1.30;99.90;;;;;;5050376;28;20193;-83
2024/01/08 02:37:59;;;;;;;3.28;2.97;;;1.30;99.90;;;;;;5054724;28;20225;-81
2024/01/08 02:40:29;;;;;;;3.55;3.30;;;1.20;99.90;;;;;;5056347;28;20335;-81
2024/01/08 02:42:58;;;;;;;5.20;3.47;;;1.30;99.90;;;;;;5055714;28;20217;-82
2024/01/08 02:45:26;;;;;;;2.13;2.03;;;1.40;99.90;;;;;;5055253;28;20204;-79
2024/01/08 02:47:55;;;;;;;2.70;2.50;;;1.30;99.90;;;;;;5052222;28;20216;-78
2024/01/08 02:50:23;;;;;;;3.88;3.58;;;1.30;99.90;;;;;;5051385;28;20684;-78
2024/01/08 02:52:51;;;;;;;3.45;3.15;;;1.20;99.90;;;;;;5054768;28;20227;-77
2024/01/08 02:55:20;;;;;;;3.78;3.50;;;1.20;99.90;;;;;;5053244;28;20260;-80
2024/01/08 02:57:50;;;;;;;3.35;3.05;;;1.20;99.90;;;;;;5055745;28;20209;-78
2024/01/08 03:00:18;;;;;;;3.20;3.00;;;1.20;99.90;;;;;;5053939;28;20788;-81
2024/01/08 03:02:47;;;;;;;2.90;2.70;;;1.20;99.90;;;;;;5055086;28;20722;-81
2024/01/08 03:05:15;;;;;;;2.85;2.65;;;1.20;99.90;;;;;;5058346;28;20193;-78
2024/01/08 03:07:44;;;;;;;3.40;3.10;;;1.20;99.90;;;;;;5053564;28;20330;-78
2024/01/08 03:10:12;;;;;;;2.97;2.78;;;1.20;99.90;;;;;;5059458;28;20216;-80
2024/01/08 03:12:40;;;;;;;3.00;2.80;;;1.30;99.90;;;;;;5053281;28;20257;-80
2024/01/08 03:15:10;;;;;;;2.65;2.45;;;1.30;99.90;;;;;;5052973;28;20185;-77
2024/01/08 03:17:39;;;;;;;3.15;2.85;;;1.20;99.90;;;;;;5054321;28;20713;-81
2024/01/08 03:20:09;;;;;;;2.80;2.60;;;1.30;99.90;;;;;;5055906;28;20189;-80
2024/01/08 03:22:39;;;;;;;3.30;3.03;;;1.30;99.90;;;;;;5056896;28;20214;-77
2024/01/08 03:25:08;;;;;;;3.42;3.22;;;1.30;99.90;;;;;;5054975;28;20201;-81
2024/01/08 03:27:37;;;;;;;3.53;3.20;;;1.20;99.90;;;;;;5056199;28;20197;-80
2024/01/08 03:30:07;;;;;;;2.95;2.75;;;1.20;99.90;;;;;;5055062;28;20220;-79
2024/01/08 03:32:37;;;;;;;3.05;2.85;;;1.30;99.90;;;;;;5053395;28;20214;-80
2024/01/08 03:35:05;;;;;;;3.25;2.92;;;1.30;99.90;;;;;;5056114;28;20197;-80
2024/01/08 03:37:34;;;;;;;2.95;2.75;;;1.20;99.90;;;;;;5052577;28;20193;-82
2024/01/08 03:40:04;;;;;;;3.58;3.38;;;1.30;99.90;;;;;;5051350;28;20659;-78
2024/01/08 03:42:32;;;;;;;3.03;2.83;;;1.30;99.90;;;;;;5056938;28;20218;-79
2024/01/08 03:45:01;;;;;;;2.90;2.70;;;1.30;99.90;;;;;;5055656;28;20201;-80
2024/01/08 03:47:29;;;;;;;3.40;3.15;;;1.20;99.90;;;;;;5050045;28;20875;-80
2024/01/08 03:49:59;;;;;;;4.10;2.92;;;1.20;99.90;;;;;;5057375;28;20225;-79
2024/01/08 03:52:27;;;;;;;2.88;2.67;;;1.20;99.90;;;;;;5049167;28;20220;-80
2024/01/08 03:54:56;;;;;;;3.63;3.33;;;1.20;99.90;;;;;;5053942;28;20209;-80
2024/01/08 03:57:24;;;;;;;3.85;3.08;;;1.20;99.90;;;;;;5049384;28;20806;-81
2024/01/08 03:59:52;;;;;;;2.97;2.78;;;1.30;99.90;;;;;;5057703;28;20255;-82
2024/01/08 04:02:20;;;;;;;3.40;3.10;;;1.30;99.90;;;;;;5051981;28;20276;-81
2024/01/08 04:04:49;;;;;;;3.40;3.15;;;1.20;99.90;;;;;;5052910;28;20292;-79
2024/01/08 04:07:19;;;;;;;3.05;2.83;;;1.20;99.90;;;;;;5049868;28;20663;-82
2024/01/08 04:09:47;;;;;;;2.92;2.83;;;1.20;99.90;;;;;;5053778;28;20217;-80
2024/01/08 04:12:15;;;;;;;4.13;3.83;;;1.20;99.90;;;;;;5052761;28;20253;-81
2024/01/08 04:14:43;;;;;;;3.53;3.33;;;1.20;99.90;;;;;;5050818;28;20247;-79
2024/01/08 04:17:12;;;;;;;3.40;3.20;;;1.20;99.90;;;;;;5049811;28;20204;-80
2024/01/08 04:19:40;;;;;;;3.47;3.28;;;1.20;99.90;;;;;;5052888;28;20329;-78
2024/01/08 04:22:08;;;;;;;3.30;3.10;;;1.20;99.90;;;;;;5055207;28;20713;-79
2024/01/08 04:24:38;;;;;;;3.13;2.80;;;1.10;99.90;;;;;;5051554;28;20197;-81
2024/01/08 04:27:07;;;;;;;2.75;2.55;;;1.10;99.90;;;;;;5052869;28;20205;-81
2024/01/08 04:29:36;;;;;;;3.40;3.10;;;1.10;99.90;;;;;;5056141;28;20312;-81
2024/01/08 04:32:05;;;;;;;3.00;2.80;;;1.10;99.90;;;;;;5053359;28;20217;-79
2024/01/08 04:34:33;;;;;;;3.88;3.58;;;1.20;99.90;;;;;;5058952;28;20197;-80
2024/01/08 04:37:01;;;;;;;3.15;2.95;;;1.20;99.90;;;;;;5053555;28;20288;-79
2024/01/08 04:39:30;;;;;;;3.58;3.13;;;1.20;99.90;;;;;;5054326;28;20229;-79
2024/01/08 04:41:59;;;;;;;3.00;2.80;;;1.20;99.90;;;;;;5055758;28;20228;-77
2024/01/08 04:44:28;;;;;;;2.80;2.60;;;1.20;99.90;;;;;;5057065;28;20221;-78
2024/01/08 04:46:56;;;;;;;3.30;3.10;;;1.20;99.90;;;;;;5055341;28;20678;-79
2024/01/08 04:49:24;;;;;;;3.80;3.15;;;1.10;99.90;;;;;;5056049;28;20324;-78
2024/01/08 04:51:53;;;;;;;2.80;2.70;;;1.10;99.90;;;;;;5056106;28;20218;-79
2024/01/08 04:54:21;;;;;;;3.83;3.53;;;1.10;99.90;;;;;;5057649;28;20285;-79
2024/01/08 04:56:49;;;;;;;2.50;2.30;;;1.10;99.90;;;;;;5050487;28;20295;-83
2024/01/08 04:59:21;;;;;;;3.00;2.80;;;1.10;99.90;;;;;;5053366;28;20272;-80
2024/01/08 05:01:49;;;;;;;4.45;3.00;;;1.10;99.90;;;;;;5045575;28;20244;-80
2024/01/08 05:04:18;;;;;;;3.97;3.65;;;1.10;99.90;;;;;;5058298;28;20679;-79
2024/01/08 05:06:47;;;;;;;3.38;2.42;;;1.10;99.90;;;;;;5051169;28;20671;-80
2024/01/08 05:09:16;;;;;;;3.22;2.97;;;1.20;99.90;;;;;;5057590;28;20202;-79
2024/01/08 05:11:44;;;;;;;2.80;2.70;;;1.20;99.90;;;;;;5052067;28;20231;-80
2024/01/08 05:14:15;;;;;;;3.25;3.05;;;1.20;99.90;;;;;;5052123;28;20196;-80
2024/01/08 05:16:44;;;;;;;2.90;2.70;;;1.10;99.90;;;;;;5051210;28;20206;-77
2024/01/08 05:19:13;;;;;;;3.60;3.30;;;1.00;99.90;;;;;;5055692;28;20215;-77
2024/01/08 05:21:42;;;;;;;3.42;3.13;;;1.00;99.90;;;;;;5056582;28;20213;-78
2024/01/08 05:24:10;;;;;;;3.40;3.20;;;1.10;99.90;;;;;;5056853;28;20227;-78
2024/01/08 05:26:38;;;;;;;3.33;2.83;;;1.10;99.90;;;;;;5049244;28;20237;-80
2024/01/08 05:29:07;;;;;;;3.40;3.20;;;1.00;99.90;;;;;;5051304;28;20388;-78
2024/01/08 05:31:36;;;;;;;3.35;3.15;;;1.00;99.90;;;;;;5041959;28;20221;-79
2024/01/08 05:34:05;;;;;;;3.45;3.15;;;1.00;99.90;;;;;;5049631;28;20204;-77
2024/01/08 05:36:34;;;;;;;3.30;3.00;;;1.10;99.90;;;;;;5056580;28;20239;-78
2024/01/08 05:39:02;;;;;;;3.35;3.15;;;1.10;99.90;;;;;;5049924;28;20830;-77
2024/01/08 05:41:30;;;;;;;2.90;2.70;;;1.10;99.90;;;;;;5051653;28;20260;-79
2024/01/08 05:43:59;;;;;;;3.67;3.33;;;1.20;99.90;;;;;;5048537;28;20206;-78
2024/01/08 05:46:27;;;;;;;2.95;2.60;;;1.10;99.90;;;;;;5045873;28;20197;-78
2024/01/08 05:48:55;;;;;;;3.60;3.30;;;1.10;99.90;;;;;;5051853;28;20260;-79
2024/01/08 05:51:28;;;;;;;3.58;3.28;;;1.10;99.90;;;;;;5049326;28;20232;-77
2024/01/08 05:53:56;;;;;;;3.17;2.97;;;1.10;99.90;;;;;;5047600;28;20201;-75
2024/01/08 05:56:25;;;;;;;3.88;3.60;;;1.20;99.90;;;;;;5042819;28;20202;-78
2024/01/08 05:58:53;;;;;;;4.22;3.90;;;1.20;99.90;;;;;;5046409;28;20198;-77
2024/01/08 06:01:21;;;;;;;3.85;3.20;;;1.20;99.90;;;;;;5037161;28;20459;-77
2024/01/08 06:03:50;;;;;;;3.60;3.30;;;1.20;99.90;;;;;;5045360;28;20896;-79
2024/01/08 06:06:19;;;;;;;4.13;3.83;;;1.20;99.90;;;;;;5032132;28;20296;-76
2024/01/08 06:08:49;;;;;;;4.38;4.07;;;1.20;99.90;;;;;;5050224;28;20230;-78
2024/01/08 06:11:17;;;;;;;4.30;3.78;;;1.10;99.90;;;;;;5039256;28;20283;-77
2024/01/08 06:13:45;;;;;;;4.15;3.80;;;1.10;99.90;;;;;;5047982;28;20209;-77
2024/01/08 06:16:16;;;;;;;3.65;3.38;;;1.10;99.90;;;;;;5049013;28;20196;-76
2024/01/08 06:18:44;;;;;;;3.83;3.53;;;1.20;99.90;;;;;;5052499;28;20217;-78
2024/01/08 06:21:13;;;;;;;3.58;3.38;;;1.20;99.90;;;;;;5050732;28;20283;-79
2024/01/08 06:23:41;;;;;;;3.65;3.35;;;1.10;99.90;;;;;;5047354;28;20569;-76
2024/01/08 06:26:12;;;;;;;3.42;3.22;;;1.10;99.90;;;;;;5044374;28;20209;-76
2024/01/08 06:28:40;;;;;;;4.60;4.22;;;1.10;99.90;;;;;;5046841;28;20487;-79
2024/01/08 06:31:09;;;;;;;4.30;3.90;;;1.00;99.90;;;;;;5051885;28;20698;-77
2024/01/08 06:33:39;;;;;;;6.55;5.43;;;1.00;99.90;;;;;;5055082;28;20196;-78
2024/01/08 06:36:08;;;;;;;3.65;3.35;;;1.10;99.90;;;;;;5056436;28;20197;-78
2024/01/08 06:38:36;;;;;;;4.70;4.05;;;1.10;99.90;;;;;;5054741;28;20297;-78
2024/01/08 06:41:05;;;;;;;3.28;2.95;;;1.10;99.90;;;;;;5052004;28;20201;-80
2024/01/08 06:43:35;;;;;;;5.45;3.80;;;1.10;99.90;;;;;;5054255;28;20223;-80
2024/01/08 06:46:03;;;;;;;3.38;3.17;;;1.00;99.90;;;;;;5047622;28;20292;-78
2024/01/08 06:48:32;;;;;;;3.75;3.08;;;1.10;99.90;;;;;;5041039;28;20212;-78
2024/01/08 06:51:01;;;;;;;4.13;3.55;;;1.10;99.90;;;;;;5044123;28;20217;-78
2024/01/08 06:53:30;;;;;;;2.97;2.78;;;1.00;99.90;;;;;;5044537;28;20215;-79
2024/01/08 06:55:58;;;;;;;3.13;2.92;;;1.00;99.90;;;;;;5046186;28;20212;-78
2024/01/08 06:58:27;;;;;;;3.65;3.33;;;1.00;99.90;;;;;;5056964;28;20232;-77
2024/01/08 07:00:57;;;;;;;3.10;2.90;;;1.00;99.90;;;;;;5057943;28;20760;-77
2024/01/08 07:03:25;;;;;;;3.35;3.05;;;0.90;99.90;;;;;;5054140;28;20327;-76
2024/01/08 07:05:53;;;;;;;3.55;3.25;;;1.00;99.90;;;;;;5057036;28;20635;-78
2024/01/08 07:08:22;;;;;;;4.13;3.83;;;1.00;99.90;;;;;;5054007;28;20948;-77
2024/01/08 07:10:51;;;;;;;3.72;3.42;;;1.00;99.90;;;;;;5050176;28;20190;-78
2024/01/08 07:13:19;;;;;;;3.10;2.80;;;1.00;99.90;;;;;;5056254;28;20228;-77
2024/01/08 07:15:49;;;;;;;6.00;5.50;;;1.00;99.90;;;;;;5039380;28;20477;-77
2024/01/08 07:18:19;;;;;;;3.72;3.42;;;1.00;99.90;;;;;;5036947;28;20193;-77
2024/01/08 07:20:48;;;;;;;3.00;2.80;;;1.00;99.90;;;;;;5039705;28;20191;-79
2024/01/08 07:23:16;;;;;;;3.15;2.85;;;1.00;99.90;;;;;;5040492;28;20230;-78
2024/01/08 07:25:45;;;;;;;4.43;2.95;;;1.00;99.90;;;;;;5039269;28;20215;-77
2024/01/08 07:28:14;;;;;;;3.33;3.13;;;1.00;99.90;;;;;;5036150;28;20197;-76
2024/01/08 07:30:42;;;;;;;3.60;3.35;;;1.00;99.90;;;;;;5039278;28;20201;-79
2024/01/08 07:33:11;;;;;;;3.95;3.60;;;1.00;99.90;;;;;;5042165;28;20220;-78
2024/01/08 07:35:41;;;;;;;3.38;3.15;;;1.00;99.90;;;;;;5039736;28;20960;-77
2024/01/08 07:38:09;;;;;;;3.55;3.30;;;1.00;99.90;;;;;;5042389;28;20822;-75
2024/01/08 07:40:37;;;;;;;4.35;3.95;;;1.00;99.90;;;;;;5040975;28;20503;-78
2024/01/08 07:43:06;;;;;;;3.85;2.90;;;0.80;99.90;;;;;;5038569;28;20319;-76
2024/01/08 07:45:34;;;;;;;4.05;3.70;;;0.90;99.90;;;;;;5040050;28;21098;-77
2024/01/08 07:48:02;;;;;;;4.28;3.97;;;0.80;99.90;;;;;;5039601;28;20284;-76
2024/01/08 07:50:31;;;;;;;4.20;3.90;;;0.80;99.90;;;;;;5042646;28;20208;-78
2024/01/08 07:53:01;;;;;;;4.45;4.05;;;0.90;99.90;;;;;;5035979;28;20242;-79
2024/01/08 07:55:29;;;;;;;3.75;3.55;;;0.80;99.90;;;;;;5042533;28;20185;-78
2024/01/08 07:57:57;;;;;;;4.10;3.70;;;0.90;99.90;;;;;;5035921;28;20229;-78
2024/01/08 08:00:25;;;;;;;3.55;3.33;;;0.90;99.90;;;;;;5039435;28;20295;-77
2024/01/08 08:02:55;;;;;;;3.95;3.50;;;0.90;99.90;;;;;;5038170;28;20304;-78
2024/01/08 08:05:23;;;;;;;3.70;3.40;;;0.90;99.90;;;;;;5025431;28;20339;-79
2024/01/08 08:07:57;;;;;;;4.35;4.00;;;0.90;99.90;;;;;;5031868;28;20258;-79
2024/01/08 08:10:27;;;;;;;3.80;3.40;;;1.00;99.90;;;;;;5039780;28;20820;-77
2024/01/08 08:12:55;;;;;;;3.53;3.22;;;1.00;99.90;;;;;;5050980;28;20346;-78
2024/01/08 08:15:24;;;;;;;3.88;3.53;;;1.00;99.90;;;;;;5037243;28;20201;-78
2024/01/08 08:17:52;;;;;;;3.67;3.38;;;1.00;99.90;;;;;;5033848;28;20212;-78
2024/01/08 08:20:21;;;;;;;4.50;4.10;;;1.00;99.90;;;;;;5037283;28;20201;-78
2024/01/08 08:22:51;;;;;;;3.55;3.25;;;0.90;99.90;;;;;;5050221;28;20245;-78
2024/01/08 08:25:20;;;;;;;3.65;3.33;;;0.90;99.90;;;;;;5049095;28;20206;-77
2024/01/08 08:27:50;;;;;;;3.70;3.40;;;0.90;99.90;;;;;;5045948;28;20204;-76
2024/01/08 08:30:19;;;;;;;3.72;3.42;;;1.00;99.90;;;;;;5029626;28;20316;-78
2024/01/08 08:32:48;;;;;;;3.10;2.90;;;0.90;99.90;;;;;;5049750;28;20256;-78
2024/01/08 08:35:17;;;;;;;3.70;3.40;;;0.90;99.90;;;;;;5045662;28;20200;-78
2024/01/08 08:37:46;;;;;;;4.15;3.75;;;0.90;99.90;;;;;;5046650;28;20197;-77
2024/01/08 08:40:21;;;;;;;5.13;2.92;;;0.90;99.90;;;;;;5047743;28;20687;-78
2024/01/08 08:42:52;;;;;;;3.55;3.10;;;0.90;99.90;;;;;;5049892;28;20214;-77
2024/01/08 08:45:21;;;;;;;5.10;4.20;;;0.90;99.90;;;;;;5047537;28;20285;-78
2024/01/08 08:47:49;;;;;;;3.75;3.53;;;1.00;99.90;;;;;;5038434;28;20204;-78
2024/01/08 08:50:19;;;;;;;4.05;3.40;;;1.00;99.90;;;;;;5052167;28;20193;-78
2024/01/08 08:52:47;;;;;;;3.70;3.40;;;1.00;99.90;;;;;;5050571;28;20304;-78
2024/01/08 08:55:16;;;;;;;3.13;2.83;;;0.90;99.90;;;;;;5046173;28;20235;-78
2024/01/08 08:57:44;;;;;;;3.50;2.92;;;1.00;99.90;;;;;;5052003;28;20198;-79
2024/01/08 09:00:15;;;;;;;3.40;3.00;;;1.00;99.90;;;;;;5042710;28;20790;-77
2024/01/08 09:02:50;;;;;;;3.85;3.15;;;1.00;99.90;;;;;;5052078;28;20219;-77
2024/01/08 09:05:19;;;;;;;4.10;3.50;;;1.00;99.90;;;;;;5049853;28;20193;-77
2024/01/08 09:08:03;;;;;;;3.88;3.53;;;1.10;99.90;;;;;;5044744;28;20707;-78
2024/01/08 09:10:32;;;;;;;2.88;2.67;;;1.10;99.90;;;;;;5049573;28;20768;-77
2024/01/08 09:13:01;;;;;;;4.50;4.10;;;1.10;99.90;;;;;;5052699;28;20218;-78
2024/01/08 09:15:31;;;;;;;4.00;3.60;;;1.10;99.90;;;;;;5049041;28;20194;-78
2024/01/08 09:18:00;;;;;;;3.53;3.25;;;1.00;99.90;;;;;;5059365;28;20903;-78
2024/01/08 09:20:30;;;;;;;3.67;3.17;;;1.00;99.90;;;;;;5054780;28;20582;-78
2024/01/08 09:22:59;;;;;;;3.72;3.53;;;1.00;99.90;;;;;;5052445;28;20217;-77
2024/01/08 09:25:27;;;;;;;4.03;3.03;;;0.90;99.90;;;;;;5051700;28;20225;-78
2024/01/08 09:27:55;;;;;;;3.78;3.47;;;1.00;99.90;;;;;;5058336;28;20206;-78
2024/01/08 09:30:24;;;;;;;3.60;3.30;;;1.00;99.90;;;;;;5052527;28;20667;-78
2024/01/08 09:32:54;;;;;;;3.35;3.05;;;1.10;99.90;;;;;;5055056;28;20304;-77
2024/01/08 09:35:22;;;;;;;3.72;3.42;;;1.10;99.90;;;;;;5052147;28;20272;-78
2024/01/08 09:37:51;;;;;;;3.40;3.10;;;1.10;99.90;;;;;;5050551;28;20665;-79
2024/01/08 09:40:20;;;;;;;4.70;3.15;;;1.00;99.90;;;;;;5054152;28;20201;-77
2024/01/08 09:42:52;;;;;;;4.30;3.40;;;1.00;99.90;;;;;;5059525;28;20605;-79
2024/01/08 09:45:23;;;;;;;3.38;3.17;;;1.10;99.90;;;;;;5053836;28;20212;-78
2024/01/08 09:47:55;;;;;;;3.38;3.10;;;1.10;99.90;;;;;;5054633;28;20902;-78
2024/01/08 09:50:26;;;;;;;3.35;3.15;;;1.20;99.90;;;;;;5044528;28;20236;-78
2024/01/08 09:52:56;;;;;;;3.35;3.05;;;1.20;99.90;;;;;;5038580;28;20887;-80
2024/01/08 09:55:24;;;;;;;3.53;3.22;;;1.20;99.90;;;;;;5053096;28;20193;-79
2024/01/08 09:57:53;;;;;;;3.40;3.10;;;1.20;99.90;;;;;;5050661;28;20206;-78
2024/01/08 10:00:22;;;;;;;2.67;2.58;;;1.20;99.90;;;;;;5051269;28;20200;-78
2024/01/08 10:02:57;;;;;;;4.00;2.97;;;1.20;99.90;;;;;;5055587;28;20205;-80
2024/01/08 10:05:28;;;;;;;4.35;3.92;;;1.20;99.90;;;;;;5055132;28;20218;-78
2024/01/08 10:08:00;;;;;;;4.10;3.80;;;1.10;99.90;;;;;;5053617;28;20237;-77
2024/01/08 10:10:29;;;;;;;3.58;3.20;;;1.10;99.90;;;;;;5054424;28;20206;-76
2024/01/08 10:12:58;;;;;;;3.55;3.25;;;1.10;99.90;;;;;;5053985;28;20225;-79
2024/01/08 10:15:28;;;;;;;4.35;2.92;;;1.20;99.90;;;;;;5044332;28;20189;-78
2024/01/08 10:18:01;;;;;;;5.68;3.95;;;1.20;99.90;;;;;;5057995;28;20201;-76
2024/01/08 10:20:31;;;;;;;5.35;3.90;;;1.20;99.90;;;;;;5055396;28;20201;-77
2024/01/08 10:23:07;;;;;;;3.25;3.05;;;1.20;99.90;;;;;;5054164;28;20245;-78
2024/01/08 10:25:36;;;;;;;2.88;2.67;;;1.30;99.90;;;;;;5050633;28;20267;-78
2024/01/08 10:28:09;;;;;;;3.42;3.13;;;1.20;97.20;;;;;;5054579;28;20697;-80
2024/01/08 10:30:38;;;;;;;3.42;3.13;;;1.20;99.20;;;;;;5054052;28;20203;-78
2024/01/08 10:33:09;;;;;;;2.85;2.65;;;1.20;97.10;;;;;;5049870;28;20232;-78
2024/01/08 10:35:38;;;;;;;3.40;3.20;;;1.20;98.10;;;;;;5050001;28;20322;-78
2024/01/08 10:38:08;;;;;;;3.80;3.50;;;1.20;99.90;;;;;;5053668;28;20197;-78
2024/01/08 10:40:37;;;;;;;4.05;3.65;;;1.20;98.70;;;;;;5052043;28;20205;-77
2024/01/08 10:43:06;;;;;;;3.58;3.28;;;1.20;99.50;;;;;;5050609;28;20206;-76
2024/01/08 10:45:35;;;;;;;3.78;3.38;;;1.30;99.90;;;;;;5051405;28;20209;-76
2024/01/08 10:48:12;;;;;;;2.83;2.60;;;1.40;99.00;;;;;;5058163;28;20274;-77
2024/01/08 10:50:46;;;;;;;3.20;3.00;;;1.30;96.40;;;;;;5057226;28;20204;-77
2024/01/08 10:53:23;;;;;;;3.05;2.85;;;1.30;95.10;;;;;;5049585;28;20252;-77
2024/01/08 10:55:53;;;;;;;2.90;2.70;;;1.20;93.60;;;;;;5054212;28;20213;-76
2024/01/08 10:58:31;;;;;;;3.65;3.40;;;1.20;92.90;;;;;;5044350;28;20651;-76
2024/01/08 11:01:00;;;;;;;3.72;3.47;;;1.20;92.50;;;;;;5050460;28;20200;-77
2024/01/08 11:03:30;;;;;;;3.25;3.00;;;1.20;95.20;;;;;;5047561;28;20285;-77
2024/01/08 11:06:02;;;;;;;3.47;3.17;;;1.20;93.20;;;;;;5052555;28;20204;-77
2024/01/08 11:08:32;;;;;;;3.03;2.80;;;1.20;93.10;;;;;;5049834;28;20540;-77
2024/01/08 11:11:08;;;;;;;4.70;3.53;;;1.20;94.10;;;;;;5050719;28;20208;-76
2024/01/08 11:13:37;;;;;;;3.38;3.10;;;1.30;95.90;;;;;;5045681;28;20298;-77
2024/01/08 11:16:07;;;;;;;3.08;2.70;;;1.30;94.50;;;;;;5035152;28;20212;-79
2024/01/08 11:18:38;;;;;;;3.15;2.85;;;1.30;99.90;;;;;;5033922;28;20221;-78
2024/01/08 11:21:07;;;;;;;3.70;3.40;;;1.30;92.90;;;;;;5037760;28;20815;-77
2024/01/08 11:23:41;;;;;;;4.47;3.25;;;1.30;92.90;;;;;;5044263;28;20203;-78
2024/01/08 11:26:14;;;;;;;3.97;3.50;;;1.40;92.70;;;;;;5035364;28;20763;-78
2024/01/08 11:28:43;;;;;;;2.92;2.70;;;1.30;92.80;;;;;;5039430;28;20233;-77
2024/01/08 11:31:55;;;;;;;3.50;3.20;;;1.30;92.80;;;;;;5039138;28;21055;-76
2024/01/08 11:34:53;;;;;;;3.20;3.00;;;1.40;95.30;;;;;;5038885;28;20799;-77
2024/01/08 11:37:31;;;;;;;3.30;3.00;;;1.40;93.10;;;;;;5039163;28;20308;-77
2024/01/08 11:40:03;;;;;;;3.47;2.92;;;1.40;93.20;;;;;;5039919;28;20190;-78
2024/01/08 11:42:32;;;;;;;3.67;3.30;;;1.40;93.00;;;;;;5043805;28;20274;-76
2024/01/08 11:45:01;;;;;;;3.83;3.47;;;1.30;94.00;;;;;;5037888;28;20194;-77
2024/01/08 11:47:31;;;;;;;4.63;3.22;;;1.30;92.60;;;;;;5037518;28;20283;-77
2024/01/08 11:50:01;;;;;;;3.60;3.30;;;1.30;92.80;;;;;;5036715;28;20660;-78
2024/01/08 11:52:30;;;;;;;4.13;3.50;;;1.40;95.10;;;;;;5040285;28;20342;-78
2024/01/08 11:54:58;;;;;;;3.03;2.75;;;1.40;95.00;;;;;;5043097;28;20300;-77
2024/01/08 11:57:27;;;;;;;4.10;3.50;;;1.40;94.10;;;;;;5037781;28;20266;-78
2024/01/08 11:59:55;;;;;;;4.00;3.70;;;1.40;92.90;;;;;;5032817;28;20193;-76
2024/01/08 12:02:27;;;;;;;4.03;3.78;;;1.40;94.60;;;;;;5036591;28;20335;-77
2024/01/08 12:04:56;;;;;;;3.65;3.35;;;1.40;93.80;;;;;;5037670;28;20351;-77
2024/01/08 12:07:28;;;;;;;3.97;3.58;;;1.40;93.20;;;;;;5033650;28;20198;-78
2024/01/08 12:09:58;;;;;;;2.88;2.67;;;1.40;92.50;;;;;;5034310;28;20205;-79
2024/01/08 12:12:26;;;;;;;3.22;3.03;;;1.50;93.30;;;;;;5038743;28;20222;-78
2024/01/08 12:14:55;;;;;;;3.40;3.10;;;1.50;92.60;;;;;;5046329;28;20210;-78
2024/01/08 12:17:24;;;;;;;3.60;3.35;;;1.60;92.80;;;;;;5046317;28;20664;-77
2024/01/08 12:19:54;;;;;;;3.78;3.47;;;1.60;92.60;;;;;;5044223;28;20727;-78
2024/01/08 12:22:26;;;;;;;3.17;2.92;;;1.60;93.40;;;;;;5044619;28;20222;-77
2024/01/08 12:24:56;;;;;;;3.05;2.85;;;1.60;92.60;;;;;;5047624;28;20190;-78
2024/01/08 12:27:30;;;;;;;4.40;4.10;;;1.60;92.80;;;;;;5044735;28;20214;-79
2024/01/08 12:29:59;;;;;;;3.28;3.08;;;1.50;92.50;;;;;;5035576;28;20263;-76
2024/01/08 12:32:29;;;;;;;3.95;3.72;;;1.60;92.70;;;;;;5037360;28;20221;-78
2024/01/08 12:35:00;;;;;;;3.50;3.20;;;1.60;93.40;;;;;;5044896;28;20587;-77
2024/01/08 12:37:32;;;;;;;3.10;2.90;;;1.70;92.80;;;;;;5047007;28;20194;-78
2024/01/08 12:40:04;;;;;;;4.05;2.85;;;1.70;92.60;;;;;;5039832;28;20206;-78
2024/01/08 12:42:35;;;;;;;6.43;4.97;;;1.70;92.70;;;;;;5041712;28;20240;-76
2024/01/08 12:45:07;;;;;;;2.88;2.60;;;1.70;92.60;;;;;;5044894;28;20190;-78
2024/01/08 12:47:35;;;;;;;3.17;2.88;;;1.60;92.60;;;;;;5042809;28;20757;-78
2024/01/08 12:50:05;;;;;;;3.05;2.80;;;1.60;92.50;;;;;;5038356;28;20324;-78
2024/01/08 12:52:35;;;;;;;3.83;3.33;;;1.50;89.60;;;;;;5038406;28;20221;-78
2024/01/08 12:55:03;;;;;;;4.18;3.78;;;1.50;88.00;;;;;;5040062;28;20326;-78
2024/01/08 12:57:32;;;;;;;3.13;2.92;;;1.60;91.80;;;;;;5044844;28;20209;-78
2024/01/08 13:00:00;;;;;;;4.05;3.65;;;1.70;92.60;;;;;;5054010;28;20357;-79
2024/01/08 13:02:31;;;;;;;3.78;3.47;;;1.80;92.80;;;;;;5047694;28;20736;-79
2024/01/08 13:05:04;;;;;;;4.32;3.92;;;1.80;92.70;;;;;;5049422;28;20189;-77
2024/01/08 13:07:35;;;;;;;3.95;3.65;;;1.80;92.70;;;;;;5039135;28;20210;-77
2024/01/08 13:10:05;;;;;;;3.75;3.53;;;1.80;92.70;;;;;;5040545;28;20292;-78